sensor_id;sensor_type;location;lat;lon;timestamp;temperature;humidity
14873;DHT22;7528;48.576;19.122;2022-08-24T00:01:36;23.00;80.40
14873;DHT22;7528;48.576;19.122;2022-08-24T00:06:40;23.00;80.00
14873;DHT22;7528;48.576;19.122;2022-08-24T00:11:43;22.90;80.10
14873;DHT22;7528;48.576;19.122;2022-08-24T00:16:48;22.90;80.20
14873;DHT22;7528;48.576;19.122;2022-08-24T00:21:51;22.80;80.30
14873;DHT22;7528;48.576;19.122;2022-08-24T00:26:54;22.70;80.80
14873;DHT22;7528;48.576;19.122;2022-08-24T00:31:59;22.70;80.90
14873;DHT22;7528;48.576;19.122;2022-08-24T00:37:02;22.60;81.00
14873;DHT22;7528;48.576;19.122;2022-08-24T00:42:05;22.60;81.30
14873;DHT22;7528;48.576;19.122;2022-08-24T00:47:17;22.60;81.60
14873;DHT22;7528;48.576;19.122;2022-08-24T00:52:24;22.70;81.70
14873;DHT22;7528;48.576;19.122;2022-08-24T00:57:32;22.60;82.20
14873;DHT22;7528;48.576;19.122;2022-08-24T01:02:41;22.60;82.40
14873;DHT22;7528;48.576;19.122;2022-08-24T01:07:45;22.60;82.40
14873;DHT22;7528;48.576;19.122;2022-08-24T01:12:54;22.60;82.80
14873;DHT22;7528;48.576;19.122;2022-08-24T01:18:01;22.60;83.00
14873;DHT22;7528;48.576;19.122;2022-08-24T01:23:33;22.60;83.30
14873;DHT22;7528;48.576;19.122;2022-08-24T01:28:40;22.50;84.30
14873;DHT22;7528;48.576;19.122;2022-08-24T01:33:48;22.50;84.40
14873;DHT22;7528;48.576;19.122;2022-08-24T01:38:53;22.40;84.70
14873;DHT22;7528;48.576;19.122;2022-08-24T01:43:57;22.40;85.00
14873;DHT22;7528;48.576;19.122;2022-08-24T01:49:03;22.30;84.90
14873;DHT22;7528;48.576;19.122;2022-08-24T01:54:08;22.30;85.80
14873;DHT22;7528;48.576;19.122;2022-08-24T01:59:12;22.30;86.40
14873;DHT22;7528;48.576;19.122;2022-08-24T02:04:18;22.30;86.90
14873;DHT22;7528;48.576;19.122;2022-08-24T02:09:24;22.30;87.50
14873;DHT22;7528;48.576;19.122;2022-08-24T02:14:27;22.30;87.50
14873;DHT22;7528;48.576;19.122;2022-08-24T02:19:31;22.30;86.80
14873;DHT22;7528;48.576;19.122;2022-08-24T02:24:35;22.20;87.10
14873;DHT22;7528;48.576;19.122;2022-08-24T02:29:39;22.20;87.20
14873;DHT22;7528;48.576;19.122;2022-08-24T02:34:42;22.20;87.10
14873;DHT22;7528;48.576;19.122;2022-08-24T02:39:47;22.10;88.40
14873;DHT22;7528;48.576;19.122;2022-08-24T02:44:53;22.00;88.70
14873;DHT22;7528;48.576;19.122;2022-08-24T02:49:56;22.00;87.80
14873;DHT22;7528;48.576;19.122;2022-08-24T02:55:01;22.00;87.40
14873;DHT22;7528;48.576;19.122;2022-08-24T03:00:08;22.00;87.00
14873;DHT22;7528;48.576;19.122;2022-08-24T03:05:13;22.00;86.60
14873;DHT22;7528;48.576;19.122;2022-08-24T03:10:20;21.90;86.10
14873;DHT22;7528;48.576;19.122;2022-08-24T03:15:23;21.90;86.80
14873;DHT22;7528;48.576;19.122;2022-08-24T03:20:27;22.00;85.90
14873;DHT22;7528;48.576;19.122;2022-08-24T03:25:33;21.90;86.70
14873;DHT22;7528;48.576;19.122;2022-08-24T03:30:36;21.90;85.90
14873;DHT22;7528;48.576;19.122;2022-08-24T03:35:39;21.90;86.10
14873;DHT22;7528;48.576;19.122;2022-08-24T03:40:47;21.90;86.30
14873;DHT22;7528;48.576;19.122;2022-08-24T03:45:50;21.80;86.50
14873;DHT22;7528;48.576;19.122;2022-08-24T03:50:54;21.80;87.00
14873;DHT22;7528;48.576;19.122;2022-08-24T03:55:59;21.80;86.80
14873;DHT22;7528;48.576;19.122;2022-08-24T04:01:03;21.70;87.10
14873;DHT22;7528;48.576;19.122;2022-08-24T04:06:08;21.70;87.80
14873;DHT22;7528;48.576;19.122;2022-08-24T04:11:15;21.80;87.90
14873;DHT22;7528;48.576;19.122;2022-08-24T04:16:20;21.80;88.00
14873;DHT22;7528;48.576;19.122;2022-08-24T04:21:32;21.80;88.30
14873;DHT22;7528;48.576;19.122;2022-08-24T04:26:41;21.80;89.10
14873;DHT22;7528;48.576;19.122;2022-08-24T04:31:46;21.70;88.60
14873;DHT22;7528;48.576;19.122;2022-08-24T04:36:50;21.70;88.50
14873;DHT22;7528;48.576;19.122;2022-08-24T04:41:55;21.60;89.00
14873;DHT22;7528;48.576;19.122;2022-08-24T04:47:00;21.60;89.20
14873;DHT22;7528;48.576;19.122;2022-08-24T04:52:05;21.70;88.90
14873;DHT22;7528;48.576;19.122;2022-08-24T04:57:11;21.70;88.60
14873;DHT22;7528;48.576;19.122;2022-08-24T05:02:14;21.70;88.60
14873;DHT22;7528;48.576;19.122;2022-08-24T05:07:21;21.70;88.30
14873;DHT22;7528;48.576;19.122;2022-08-24T05:12:26;21.80;88.70
14873;DHT22;7528;48.576;19.122;2022-08-24T05:17:36;21.80;88.60
14873;DHT22;7528;48.576;19.122;2022-08-24T05:22:41;21.80;87.90
14873;DHT22;7528;48.576;19.122;2022-08-24T05:27:47;21.80;88.00
14873;DHT22;7528;48.576;19.122;2022-08-24T05:32:52;21.80;88.80
14873;DHT22;7528;48.576;19.122;2022-08-24T05:37:56;21.80;88.50
14873;DHT22;7528;48.576;19.122;2022-08-24T05:43:09;21.90;87.50
14873;DHT22;7528;48.576;19.122;2022-08-24T05:48:13;22.00;88.20
14873;DHT22;7528;48.576;19.122;2022-08-24T05:53:35;22.10;87.80
14873;DHT22;7528;48.576;19.122;2022-08-24T05:58:42;22.10;88.20
14873;DHT22;7528;48.576;19.122;2022-08-24T06:03:46;22.20;88.10
14873;DHT22;7528;48.576;19.122;2022-08-24T06:08:51;22.30;88.50
14873;DHT22;7528;48.576;19.122;2022-08-24T06:13:59;22.40;87.20
14873;DHT22;7528;48.576;19.122;2022-08-24T06:19:05;22.60;85.90
14873;DHT22;7528;48.576;19.122;2022-08-24T06:24:09;22.80;85.30
14873;DHT22;7528;48.576;19.122;2022-08-24T06:29:15;22.80;85.80
14873;DHT22;7528;48.576;19.122;2022-08-24T06:34:21;23.00;85.60
14873;DHT22;7528;48.576;19.122;2022-08-24T06:39:25;23.10;84.70
14873;DHT22;7528;48.576;19.122;2022-08-24T06:44:33;23.10;84.80
14873;DHT22;7528;48.576;19.122;2022-08-24T06:49:46;23.20;83.90
14873;DHT22;7528;48.576;19.122;2022-08-24T06:54:49;23.30;83.50
14873;DHT22;7528;48.576;19.122;2022-08-24T06:59:55;23.50;84.10
14873;DHT22;7528;48.576;19.122;2022-08-24T07:05:22;23.80;83.10
14873;DHT22;7528;48.576;19.122;2022-08-24T07:10:50;24.00;83.30
14873;DHT22;7528;48.576;19.122;2022-08-24T07:15:55;24.20;80.10
14873;DHT22;7528;48.576;19.122;2022-08-24T07:20:59;24.40;79.70
14873;DHT22;7528;48.576;19.122;2022-08-24T07:26:21;24.60;78.50
14873;DHT22;7528;48.576;19.122;2022-08-24T07:31:28;24.80;79.60
14873;DHT22;7528;48.576;19.122;2022-08-24T07:36:40;25.00;77.00
14873;DHT22;7528;48.576;19.122;2022-08-24T07:41:44;25.30;75.20
14873;DHT22;7528;48.576;19.122;2022-08-24T07:46:50;25.40;74.90
14873;DHT22;7528;48.576;19.122;2022-08-24T07:51:54;25.70;73.20
14873;DHT22;7528;48.576;19.122;2022-08-24T07:56:59;25.90;73.00
14873;DHT22;7528;48.576;19.122;2022-08-24T08:02:04;26.10;72.60
14873;DHT22;7528;48.576;19.122;2022-08-24T08:07:10;26.40;71.60
14873;DHT22;7528;48.576;19.122;2022-08-24T08:12:15;26.70;70.80
14873;DHT22;7528;48.576;19.122;2022-08-24T08:17:30;26.90;72.10
14873;DHT22;7528;48.576;19.122;2022-08-24T08:22:34;27.10;71.30
14873;DHT22;7528;48.576;19.122;2022-08-24T08:28:18;27.40;69.00
14873;DHT22;7528;48.576;19.122;2022-08-24T08:33:22;27.80;65.30
14873;DHT22;7528;48.576;19.122;2022-08-24T08:38:27;28.00;65.30
14873;DHT22;7528;48.576;19.122;2022-08-24T08:43:40;28.40;62.70
14873;DHT22;7528;48.576;19.122;2022-08-24T08:54:48;29.00;62.80
14873;DHT22;7528;48.576;19.122;2022-08-24T09:00:14;29.30;62.70
14873;DHT22;7528;48.576;19.122;2022-08-24T09:05:53;29.60;58.70
14873;DHT22;7528;48.576;19.122;2022-08-24T09:11:05;29.90;59.00
14873;DHT22;7528;48.576;19.122;2022-08-24T09:16:17;30.20;57.40
14873;DHT22;7528;48.576;19.122;2022-08-24T09:21:38;30.40;58.20
14873;DHT22;7528;48.576;19.122;2022-08-24T09:26:57;30.70;56.50
14873;DHT22;7528;48.576;19.122;2022-08-24T09:32:26;30.90;53.80
14873;DHT22;7528;48.576;19.122;2022-08-24T09:37:33;31.10;52.80
14873;DHT22;7528;48.576;19.122;2022-08-24T09:48:51;31.10;52.00
14873;DHT22;7528;48.576;19.122;2022-08-24T09:54:27;31.00;51.90
14873;DHT22;7528;48.576;19.122;2022-08-24T09:59:55;31.00;54.20
14873;DHT22;7528;48.576;19.122;2022-08-24T10:05:10;31.10;53.90
14873;DHT22;7528;48.576;19.122;2022-08-24T10:10:26;31.20;54.50
14873;DHT22;7528;48.576;19.122;2022-08-24T10:15:37;31.30;54.70
14873;DHT22;7528;48.576;19.122;2022-08-24T10:21:02;31.50;55.30
14873;DHT22;7528;48.576;19.122;2022-08-24T10:26:15;31.70;53.20
14873;DHT22;7528;48.576;19.122;2022-08-24T10:31:26;31.90;52.70
14873;DHT22;7528;48.576;19.122;2022-08-24T10:36:45;32.10;54.50
14873;DHT22;7528;48.576;19.122;2022-08-24T10:42:15;32.30;52.20
14873;DHT22;7528;48.576;19.122;2022-08-24T10:47:58;32.70;52.00
14873;DHT22;7528;48.576;19.122;2022-08-24T10:53:27;33.20;50.80
14873;DHT22;7528;48.576;19.122;2022-08-24T10:58:44;33.50;50.10
14873;DHT22;7528;48.576;19.122;2022-08-24T11:03:53;33.80;50.90
14873;DHT22;7528;48.576;19.122;2022-08-24T11:09:02;33.90;49.30
14873;DHT22;7528;48.576;19.122;2022-08-24T11:14:08;33.90;47.10
14873;DHT22;7528;48.576;19.122;2022-08-24T11:19:13;33.90;48.00
14873;DHT22;7528;48.576;19.122;2022-08-24T11:24:30;34.00;45.80
14873;DHT22;7528;48.576;19.122;2022-08-24T11:30:05;33.90;49.50
14873;DHT22;7528;48.576;19.122;2022-08-24T11:35:17;33.90;49.20
14873;DHT22;7528;48.576;19.122;2022-08-24T11:40:27;34.00;48.30
14873;DHT22;7528;48.576;19.122;2022-08-24T11:45:36;33.60;47.70
14873;DHT22;7528;48.576;19.122;2022-08-24T11:50:46;33.20;48.80
14873;DHT22;7528;48.576;19.122;2022-08-24T11:55:59;33.00;50.20
14873;DHT22;7528;48.576;19.122;2022-08-24T12:01:07;32.80;50.80
14873;DHT22;7528;48.576;19.122;2022-08-24T12:06:22;32.60;51.60
14873;DHT22;7528;48.576;19.122;2022-08-24T12:11:36;32.30;52.00
14873;DHT22;7528;48.576;19.122;2022-08-24T12:16:46;32.10;53.40
14873;DHT22;7528;48.576;19.122;2022-08-24T12:21:53;32.10;52.70
14873;DHT22;7528;48.576;19.122;2022-08-24T12:27:03;32.20;52.70
14873;DHT22;7528;48.576;19.122;2022-08-24T12:32:13;32.10;56.80
14873;DHT22;7528;48.576;19.122;2022-08-24T12:37:21;32.00;57.50
14873;DHT22;7528;48.576;19.122;2022-08-24T12:42:36;31.90;58.40
14873;DHT22;7528;48.576;19.122;2022-08-24T12:47:44;31.90;60.20
14873;DHT22;7528;48.576;19.122;2022-08-24T12:53:10;31.80;59.10
14873;DHT22;7528;48.576;19.122;2022-08-24T12:58:36;31.80;59.00
14873;DHT22;7528;48.576;19.122;2022-08-24T13:03:46;31.90;62.00
14873;DHT22;7528;48.576;19.122;2022-08-24T13:08:52;32.00;61.60
14873;DHT22;7528;48.576;19.122;2022-08-24T13:14:17;31.90;62.50
14873;DHT22;7528;48.576;19.122;2022-08-24T13:19:34;31.80;65.20
14873;DHT22;7528;48.576;19.122;2022-08-24T13:24:41;31.50;62.90
14873;DHT22;7528;48.576;19.122;2022-08-24T13:29:52;31.40;62.60
14873;DHT22;7528;48.576;19.122;2022-08-24T13:34:56;31.20;64.20
14873;DHT22;7528;48.576;19.122;2022-08-24T13:40:05;31.10;65.30
14873;DHT22;7528;48.576;19.122;2022-08-24T13:45:23;30.80;62.50
14873;DHT22;7528;48.576;19.122;2022-08-24T13:50:34;30.60;63.00
14873;DHT22;7528;48.576;19.122;2022-08-24T13:55:45;30.40;63.20
14873;DHT22;7528;48.576;19.122;2022-08-24T14:00:56;30.20;60.50
14873;DHT22;7528;48.576;19.122;2022-08-24T14:06:17;29.80;58.70
14873;DHT22;7528;48.576;19.122;2022-08-24T14:11:41;29.30;59.10
14873;DHT22;7528;48.576;19.122;2022-08-24T14:31:14;27.80;65.30
14873;DHT22;7528;48.576;19.122;2022-08-24T14:36:20;27.80;68.40
14873;DHT22;7528;48.576;19.122;2022-08-24T14:41:34;27.70;68.00
14873;DHT22;7528;48.576;19.122;2022-08-24T14:46:51;27.40;69.80
14873;DHT22;7528;48.576;19.122;2022-08-24T14:52:06;27.10;70.60
14873;DHT22;7528;48.576;19.122;2022-08-24T14:57:36;26.90;71.60
14873;DHT22;7528;48.576;19.122;2022-08-24T15:03:00;26.80;72.90
14873;DHT22;7528;48.576;19.122;2022-08-24T15:08:11;26.80;73.50
14873;DHT22;7528;48.576;19.122;2022-08-24T15:13:26;26.60;73.40
14873;DHT22;7528;48.576;19.122;2022-08-24T15:18:38;26.60;74.60
14873;DHT22;7528;48.576;19.122;2022-08-24T15:29:15;26.50;77.00
14873;DHT22;7528;48.576;19.122;2022-08-24T15:34:37;26.30;77.90
14873;DHT22;7528;48.576;19.122;2022-08-24T15:39:40;26.40;78.00
14873;DHT22;7528;48.576;19.122;2022-08-24T15:44:46;26.30;79.40
14873;DHT22;7528;48.576;19.122;2022-08-24T15:49:54;26.20;80.10
14873;DHT22;7528;48.576;19.122;2022-08-24T15:55:00;26.10;80.30
14873;DHT22;7528;48.576;19.122;2022-08-24T16:00:07;26.00;80.90
14873;DHT22;7528;48.576;19.122;2022-08-24T16:05:18;26.10;80.90
14873;DHT22;7528;48.576;19.122;2022-08-24T16:10:28;26.00;81.90
14873;DHT22;7528;48.576;19.122;2022-08-24T16:15:32;25.80;82.90
14873;DHT22;7528;48.576;19.122;2022-08-24T16:20:37;25.80;83.10
14873;DHT22;7528;48.576;19.122;2022-08-24T16:25:41;25.80;83.10
14873;DHT22;7528;48.576;19.122;2022-08-24T16:30:47;25.80;83.30
14873;DHT22;7528;48.576;19.122;2022-08-24T16:35:52;25.70;83.90
14873;DHT22;7528;48.576;19.122;2022-08-24T16:40:57;25.70;84.10
14873;DHT22;7528;48.576;19.122;2022-08-24T16:46:01;25.70;85.00
14873;DHT22;7528;48.576;19.122;2022-08-24T16:51:06;25.60;84.60
14873;DHT22;7528;48.576;19.122;2022-08-24T16:56:09;25.50;85.20
14873;DHT22;7528;48.576;19.122;2022-08-24T17:01:12;25.40;86.20
14873;DHT22;7528;48.576;19.122;2022-08-24T17:06:17;25.40;86.80
14873;DHT22;7528;48.576;19.122;2022-08-24T17:11:20;25.30;87.90
14873;DHT22;7528;48.576;19.122;2022-08-24T17:16:24;25.20;88.50
14873;DHT22;7528;48.576;19.122;2022-08-24T17:21:28;25.10;89.40
14873;DHT22;7528;48.576;19.122;2022-08-24T17:26:31;25.10;89.20
14873;DHT22;7528;48.576;19.122;2022-08-24T17:31:35;25.20;89.00
14873;DHT22;7528;48.576;19.122;2022-08-24T17:36:40;24.90;90.20
14873;DHT22;7528;48.576;19.122;2022-08-24T17:41:45;24.90;90.40
14873;DHT22;7528;48.576;19.122;2022-08-24T17:46:49;24.90;90.10
14873;DHT22;7528;48.576;19.122;2022-08-24T17:51:54;24.80;90.30
14873;DHT22;7528;48.576;19.122;2022-08-24T17:56:57;24.70;90.50
14873;DHT22;7528;48.576;19.122;2022-08-24T18:02:03;24.70;90.80
14873;DHT22;7528;48.576;19.122;2022-08-24T18:07:10;24.60;90.80
14873;DHT22;7528;48.576;19.122;2022-08-24T18:12:14;24.60;90.90
14873;DHT22;7528;48.576;19.122;2022-08-24T18:17:20;24.60;90.80
14873;DHT22;7528;48.576;19.122;2022-08-24T18:22:24;24.60;90.50
14873;DHT22;7528;48.576;19.122;2022-08-24T18:27:29;24.60;90.10
14873;DHT22;7528;48.576;19.122;2022-08-24T18:32:34;24.50;90.40
14873;DHT22;7528;48.576;19.122;2022-08-24T18:37:38;24.40;90.80
14873;DHT22;7528;48.576;19.122;2022-08-24T18:42:42;24.30;91.00
14873;DHT22;7528;48.576;19.122;2022-08-24T18:47:46;24.20;91.20
14873;DHT22;7528;48.576;19.122;2022-08-24T18:52:50;24.20;91.40
14873;DHT22;7528;48.576;19.122;2022-08-24T18:57:54;24.20;91.50
14873;DHT22;7528;48.576;19.122;2022-08-24T19:02:59;24.20;91.60
14873;DHT22;7528;48.576;19.122;2022-08-24T19:08:04;24.10;91.90
14873;DHT22;7528;48.576;19.122;2022-08-24T19:13:09;24.10;92.20
14873;DHT22;7528;48.576;19.122;2022-08-24T19:18:17;24.10;92.20
14873;DHT22;7528;48.576;19.122;2022-08-24T19:23:24;24.10;92.20
14873;DHT22;7528;48.576;19.122;2022-08-24T19:28:29;24.10;92.40
14873;DHT22;7528;48.576;19.122;2022-08-24T19:33:34;24.10;92.10
14873;DHT22;7528;48.576;19.122;2022-08-24T19:38:39;24.00;92.30
14873;DHT22;7528;48.576;19.122;2022-08-24T19:43:50;24.00;92.30
14873;DHT22;7528;48.576;19.122;2022-08-24T19:49:11;23.90;92.30
14873;DHT22;7528;48.576;19.122;2022-08-24T19:54:15;23.90;92.40
14873;DHT22;7528;48.576;19.122;2022-08-24T19:59:20;23.80;92.60
14873;DHT22;7528;48.576;19.122;2022-08-24T20:04:26;23.80;92.90
14873;DHT22;7528;48.576;19.122;2022-08-24T20:09:30;23.90;92.70
14873;DHT22;7528;48.576;19.122;2022-08-24T20:14:33;23.80;92.80
14873;DHT22;7528;48.576;19.122;2022-08-24T20:19:37;23.60;93.40
14873;DHT22;7528;48.576;19.122;2022-08-24T20:24:42;23.70;93.70
14873;DHT22;7528;48.576;19.122;2022-08-24T20:29:45;23.70;93.30
14873;DHT22;7528;48.576;19.122;2022-08-24T20:34:48;23.60;93.30
14873;DHT22;7528;48.576;19.122;2022-08-24T20:39:53;23.50;93.40
14873;DHT22;7528;48.576;19.122;2022-08-24T20:44:57;23.40;93.60
14873;DHT22;7528;48.576;19.122;2022-08-24T20:50:01;23.30;93.70
14873;DHT22;7528;48.576;19.122;2022-08-24T20:55:06;23.40;93.50
14873;DHT22;7528;48.576;19.122;2022-08-24T21:00:10;23.40;93.00
14873;DHT22;7528;48.576;19.122;2022-08-24T21:05:14;23.40;92.90
14873;DHT22;7528;48.576;19.122;2022-08-24T21:10:21;23.40;92.70
14873;DHT22;7528;48.576;19.122;2022-08-24T21:15:24;23.40;92.70
14873;DHT22;7528;48.576;19.122;2022-08-24T21:20:27;23.40;92.80
14873;DHT22;7528;48.576;19.122;2022-08-24T21:25:31;23.40;93.10
14873;DHT22;7528;48.576;19.122;2022-08-24T21:30:34;23.40;93.20
14873;DHT22;7528;48.576;19.122;2022-08-24T21:35:37;23.40;93.20
14873;DHT22;7528;48.576;19.122;2022-08-24T21:40:43;23.50;93.30
14873;DHT22;7528;48.576;19.122;2022-08-24T21:45:46;23.40;93.50
14873;DHT22;7528;48.576;19.122;2022-08-24T21:50:50;23.30;93.60
14873;DHT22;7528;48.576;19.122;2022-08-24T21:55:55;23.30;93.70
14873;DHT22;7528;48.576;19.122;2022-08-24T22:00:59;23.30;93.90
14873;DHT22;7528;48.576;19.122;2022-08-24T22:06:02;23.40;93.80
14873;DHT22;7528;48.576;19.122;2022-08-24T22:11:07;23.30;94.20
14873;DHT22;7528;48.576;19.122;2022-08-24T22:16:10;23.20;94.30
14873;DHT22;7528;48.576;19.122;2022-08-24T22:21:18;23.20;94.50
14873;DHT22;7528;48.576;19.122;2022-08-24T22:26:23;23.20;94.30
14873;DHT22;7528;48.576;19.122;2022-08-24T22:31:32;23.20;94.60
14873;DHT22;7528;48.576;19.122;2022-08-24T22:36:36;23.20;94.70
14873;DHT22;7528;48.576;19.122;2022-08-24T22:41:41;23.20;94.70
14873;DHT22;7528;48.576;19.122;2022-08-24T22:46:45;23.10;94.70
14873;DHT22;7528;48.576;19.122;2022-08-24T22:51:48;23.10;94.80
14873;DHT22;7528;48.576;19.122;2022-08-24T22:56:54;23.20;94.40
14873;DHT22;7528;48.576;19.122;2022-08-24T23:01:57;23.10;94.80
14873;DHT22;7528;48.576;19.122;2022-08-24T23:07:01;23.10;94.90
14873;DHT22;7528;48.576;19.122;2022-08-24T23:12:07;23.20;94.90
14873;DHT22;7528;48.576;19.122;2022-08-24T23:17:10;23.10;94.80
14873;DHT22;7528;48.576;19.122;2022-08-24T23:22:17;23.10;95.10
14873;DHT22;7528;48.576;19.122;2022-08-24T23:27:22;23.10;95.40
14873;DHT22;7528;48.576;19.122;2022-08-24T23:32:25;23.10;95.30
14873;DHT22;7528;48.576;19.122;2022-08-24T23:37:28;23.10;95.30
14873;DHT22;7528;48.576;19.122;2022-08-24T23:42:33;23.10;95.50
14873;DHT22;7528;48.576;19.122;2022-08-24T23:47:36;23.00;95.90
14873;DHT22;7528;48.576;19.122;2022-08-24T23:52:39;23.00;96.10
14873;DHT22;7528;48.576;19.122;2022-08-24T23:57:44;23.00;96.20
